Time;durP1;ratioP1;P1;durP2;ratioP2;P2;SDS_P1;SDS_P2;PMS_P1;PMS_P2;Temp;Humidity;BMP_temperature;BMP_pressure;BME280_temperature;BME280_humidity;BME280_pressure;Samples;Min_cycle;Max_cycle;Signal;HPM_P1;HPM_P2
2023/11/18 00:01:00;;;;;;;24.10;13.33;;;1.00;99.90;;;;;;4918397;29;20283;-80
2023/11/18 00:03:27;;;;;;;25.50;13.13;;;1.00;99.90;;;;;;4934395;29;20211;-80
2023/11/18 00:05:54;;;;;;;25.87;13.20;;;1.10;99.90;;;;;;4953064;29;20240;-80
2023/11/18 00:08:21;;;;;;;25.57;12.97;;;1.10;99.90;;;;;;4954434;28;20194;-80
2023/11/18 00:10:48;;;;;;;22.90;12.97;;;1.00;99.90;;;;;;4955038;29;20310;-80
2023/11/18 00:13:15;;;;;;;24.57;13.23;;;1.00;99.90;;;;;;4953284;29;20198;-80
2023/11/18 00:15:42;;;;;;;23.97;13.10;;;1.00;99.90;;;;;;4954835;29;20225;-80
2023/11/18 00:18:13;;;;;;;26.50;13.30;;;1.00;99.90;;;;;;4953256;29;20252;-80
2023/11/18 00:20:40;;;;;;;24.23;12.93;;;1.00;99.90;;;;;;4954629;29;20251;-79
2023/11/18 00:23:07;;;;;;;26.43;13.53;;;1.10;99.90;;;;;;4954483;29;20195;-79
2023/11/18 00:25:36;;;;;;;25.20;13.93;;;1.10;99.90;;;;;;4954651;29;20217;-79
2023/11/18 00:28:03;;;;;;;24.20;13.17;;;1.10;99.90;;;;;;4955513;29;20204;-79
2023/11/18 00:30:30;;;;;;;24.73;13.40;;;1.10;99.90;;;;;;4954330;29;20284;-79
2023/11/18 00:32:57;;;;;;;24.63;13.63;;;1.10;99.90;;;;;;4954546;29;20285;-79
2023/11/18 00:35:24;;;;;;;22.87;12.57;;;1.10;99.90;;;;;;4954315;29;20200;-79
2023/11/18 00:37:51;;;;;;;22.20;12.30;;;1.10;99.90;;;;;;4954465;29;20289;-79
2023/11/18 00:40:18;;;;;;;22.57;12.53;;;1.10;99.90;;;;;;4954342;29;20257;-79
2023/11/18 00:42:45;;;;;;;23.73;12.57;;;1.10;99.90;;;;;;4954477;29;20273;-79
2023/11/18 00:45:12;;;;;;;23.73;12.53;;;1.10;99.90;;;;;;4937312;29;20201;-79
2023/11/18 00:47:41;;;;;;;25.00;12.50;;;1.10;99.90;;;;;;4954821;29;20226;-79
2023/11/18 00:50:08;;;;;;;24.00;12.43;;;1.10;99.90;;;;;;4952713;29;20651;-79
2023/11/18 00:52:41;;;;;;;24.37;12.43;;;1.10;99.90;;;;;;4954266;29;20197;-79
2023/11/18 00:55:08;;;;;;;25.10;13.23;;;1.10;99.90;;;;;;4952831;29;20212;-79
2023/11/18 00:57:38;;;;;;;23.97;13.27;;;1.20;99.90;;;;;;4954606;29;20211;-79
2023/11/18 01:00:13;;;;;;;20.67;11.67;;;1.20;99.90;;;;;;4954749;29;20222;-79
2023/11/18 01:02:42;;;;;;;22.53;11.70;;;1.20;99.90;;;;;;4953401;29;20304;-79
2023/11/18 01:05:10;;;;;;;22.37;12.10;;;1.10;99.90;;;;;;4937398;29;20233;-79
2023/11/18 01:07:38;;;;;;;22.53;12.27;;;1.10;99.90;;;;;;4954260;29;20196;-79
2023/11/18 01:10:06;;;;;;;19.73;11.37;;;1.10;99.90;;;;;;4936887;29;20206;-79
2023/11/18 01:12:34;;;;;;;20.33;11.50;;;1.00;99.90;;;;;;4954180;29;20281;-79
2023/11/18 01:15:01;;;;;;;22.87;12.00;;;1.00;99.90;;;;;;4954551;29;20214;-79
2023/11/18 01:17:28;;;;;;;21.10;11.77;;;1.00;99.90;;;;;;4954138;29;20620;-79
2023/11/18 01:19:55;;;;;;;19.73;11.00;;;1.00;99.90;;;;;;4954663;28;20262;-79
2023/11/18 01:22:22;;;;;;;20.63;11.53;;;1.10;99.90;;;;;;4956772;29;20243;-79
2023/11/18 01:24:51;;;;;;;18.87;11.10;;;1.10;99.90;;;;;;4941255;29;20257;-79
2023/11/18 01:27:19;;;;;;;20.27;10.93;;;1.10;99.90;;;;;;4957872;29;20214;-79
2023/11/18 01:29:46;;;;;;;21.43;11.60;;;1.10;99.90;;;;;;4957016;29;20249;-79
2023/11/18 01:32:14;;;;;;;21.67;11.40;;;1.10;99.90;;;;;;4956755;29;20206;-79
2023/11/18 01:34:43;;;;;;;19.23;10.97;;;1.10;99.90;;;;;;4957771;29;20198;-79
2023/11/18 01:37:10;;;;;;;18.13;10.03;;;1.10;99.90;;;;;;4956678;29;20598;-79
2023/11/18 01:39:37;;;;;;;18.67;10.30;;;1.00;99.90;;;;;;4957768;29;20224;-79
2023/11/18 01:42:04;;;;;;;17.67;9.93;;;1.00;99.90;;;;;;4940798;29;20226;-79
2023/11/18 01:44:33;;;;;;;18.30;10.73;;;1.00;99.90;;;;;;4958962;29;20585;-79
2023/11/18 01:47:05;;;;;;;19.50;11.10;;;1.00;99.90;;;;;;4957581;29;20296;-79
2023/11/18 01:49:40;;;;;;;19.20;10.80;;;1.00;99.90;;;;;;4956915;29;20218;-79
2023/11/18 01:52:08;;;;;;;20.70;11.07;;;1.00;99.90;;;;;;4956400;29;20245;-79
2023/11/18 01:54:37;;;;;;;19.10;10.83;;;1.00;99.90;;;;;;4956217;29;20190;-79
2023/11/18 01:57:09;;;;;;;17.67;10.63;;;1.00;99.90;;;;;;4940343;29;20650;-79
2023/11/18 01:59:40;;;;;;;18.10;10.50;;;1.00;99.90;;;;;;4957307;29;20214;-79
2023/11/18 02:02:08;;;;;;;19.13;10.73;;;1.00;99.90;;;;;;4956053;29;20284;-79
2023/11/18 02:04:35;;;;;;;18.77;10.43;;;1.00;99.90;;;;;;4957028;29;20312;-79
2023/11/18 02:07:08;;;;;;;17.87;10.27;;;1.10;99.90;;;;;;4957538;29;20194;-79
2023/11/18 02:09:36;;;;;;;18.03;10.57;;;1.10;99.90;;;;;;4957338;29;20206;-80
2023/11/18 02:12:26;;;;;;;19.60;10.97;;;1.10;99.90;;;;;;4956404;29;20640;-79
2023/11/18 02:14:57;;;;;;;16.83;9.83;;;1.10;99.90;;;;;;4957143;29;20193;-79
2023/11/18 02:17:25;;;;;;;16.63;10.20;;;1.00;99.90;;;;;;4955954;29;20252;-79
2023/11/18 02:19:54;;;;;;;16.50;9.77;;;1.00;99.90;;;;;;4956771;29;20335;-79
2023/11/18 02:22:22;;;;;;;17.57;9.97;;;1.00;99.90;;;;;;4957126;29;20479;-80
2023/11/18 02:24:50;;;;;;;18.77;10.03;;;1.00;99.90;;;;;;4957225;29;20644;-79
2023/11/18 02:27:20;;;;;;;18.13;10.40;;;1.00;99.90;;;;;;4956924;29;20218;-79
2023/11/18 02:29:48;;;;;;;18.83;10.17;;;1.00;99.90;;;;;;4939817;29;20214;-80
2023/11/18 02:32:27;;;;;;;16.07;9.60;;;1.00;99.90;;;;;;4955577;28;20892;-79
2023/11/18 02:35:10;;;;;;;17.07;10.03;;;1.00;99.90;;;;;;4957055;29;20221;-79
2023/11/18 02:37:44;;;;;;;17.23;9.97;;;1.10;99.90;;;;;;4956372;29;20198;-80
2023/11/18 02:40:20;;;;;;;17.03;9.83;;;1.00;99.90;;;;;;4939995;29;20236;-80
2023/11/18 02:42:50;;;;;;;18.37;9.83;;;1.00;99.90;;;;;;4956454;29;20649;-80
2023/11/18 02:45:17;;;;;;;17.67;9.37;;;1.00;99.90;;;;;;4956680;29;20261;-79
2023/11/18 02:47:45;;;;;;;16.70;9.50;;;1.00;99.90;;;;;;4956927;29;20288;-80
2023/11/18 02:50:13;;;;;;;14.43;9.43;;;1.00;99.90;;;;;;4956849;29;20190;-80
2023/11/18 02:52:40;;;;;;;15.93;9.47;;;1.00;99.90;;;;;;4957125;29;20194;-80
2023/11/18 02:55:08;;;;;;;15.30;9.60;;;1.00;99.90;;;;;;4956887;29;20207;-80
2023/11/18 02:57:36;;;;;;;18.97;9.83;;;1.10;99.90;;;;;;4956520;29;20204;-80
2023/11/18 03:00:17;;;;;;;15.53;9.67;;;1.10;99.90;;;;;;4939331;29;20604;-80
2023/11/18 03:02:45;;;;;;;16.73;9.33;;;1.10;99.90;;;;;;4954967;29;20205;-79
2023/11/18 03:05:12;;;;;;;15.40;9.00;;;1.00;99.90;;;;;;4956285;29;20237;-80
2023/11/18 03:07:42;;;;;;;16.37;8.93;;;1.00;99.90;;;;;;4956159;29;20209;-79
2023/11/18 03:10:20;;;;;;;16.13;9.23;;;1.00;99.90;;;;;;4954537;29;20209;-80
2023/11/18 03:12:48;;;;;;;17.30;9.57;;;1.00;99.90;;;;;;4956199;29;20219;-80
2023/11/18 03:15:19;;;;;;;14.60;8.60;;;1.00;99.90;;;;;;4955672;29;20238;-80
2023/11/18 03:17:50;;;;;;;15.00;8.80;;;1.10;99.90;;;;;;4939257;29;20198;-80
2023/11/18 03:20:19;;;;;;;14.23;8.57;;;1.10;99.90;;;;;;4938618;29;20694;-80
2023/11/18 03:22:47;;;;;;;15.73;8.90;;;1.10;99.90;;;;;;4956505;29;20196;-80
2023/11/18 03:25:14;;;;;;;13.80;8.60;;;1.10;99.90;;;;;;4955637;29;20700;-80
2023/11/18 03:27:42;;;;;;;14.13;8.83;;;1.20;99.90;;;;;;4955812;29;20663;-79
2023/11/18 03:30:10;;;;;;;13.97;8.17;;;1.20;99.90;;;;;;4954570;29;20221;-79
2023/11/18 03:32:38;;;;;;;12.17;7.93;;;1.20;99.90;;;;;;4955885;29;20540;-80
2023/11/18 03:35:09;;;;;;;12.97;8.13;;;1.10;99.90;;;;;;4954445;29;20192;-80
2023/11/18 03:37:41;;;;;;;12.17;7.70;;;1.10;99.90;;;;;;4955857;29;20190;-80
2023/11/18 03:40:13;;;;;;;12.80;7.63;;;1.00;99.90;;;;;;4955649;29;20223;-80
2023/11/18 03:42:47;;;;;;;11.67;7.20;;;1.00;99.90;;;;;;4954434;28;20206;-80
2023/11/18 03:45:18;;;;;;;12.27;7.40;;;1.00;99.90;;;;;;4955439;29;20250;-80
2023/11/18 03:47:47;;;;;;;13.43;7.53;;;1.00;99.90;;;;;;4955645;29;20189;-79
2023/11/18 03:50:14;;;;;;;11.77;7.33;;;1.10;99.90;;;;;;4955181;29;20264;-79
2023/11/18 03:52:41;;;;;;;11.90;7.50;;;1.10;99.90;;;;;;4955616;29;20242;-80
2023/11/18 03:55:09;;;;;;;11.10;7.30;;;1.10;99.90;;;;;;4938127;29;20245;-79
2023/11/18 03:57:36;;;;;;;11.37;7.13;;;1.10;99.90;;;;;;4955096;29;20602;-80
2023/11/18 04:00:04;;;;;;;12.73;7.37;;;1.10;99.90;;;;;;4955558;29;20281;-79
2023/11/18 04:02:31;;;;;;;13.60;7.10;;;1.10;99.90;;;;;;4955072;29;20543;-79
2023/11/18 04:04:58;;;;;;;11.90;7.47;;;1.10;99.90;;;;;;4954963;29;20230;-80
2023/11/18 04:07:25;;;;;;;10.23;6.53;;;1.00;99.90;;;;;;4955250;29;20208;-79
2023/11/18 04:09:52;;;;;;;10.67;6.90;;;1.10;99.90;;;;;;4953984;29;20194;-79
2023/11/18 04:12:19;;;;;;;12.17;7.00;;;1.00;99.90;;;;;;4953472;29;20281;-79
2023/11/18 04:14:46;;;;;;;9.80;6.17;;;1.00;99.90;;;;;;4955050;29;20205;-79
2023/11/18 04:17:13;;;;;;;10.17;6.80;;;1.00;99.90;;;;;;4953669;29;20654;-79
2023/11/18 04:19:41;;;;;;;12.07;7.33;;;1.00;99.90;;;;;;4938371;29;20206;-79
2023/11/18 04:22:09;;;;;;;11.33;6.63;;;1.00;99.90;;;;;;4954997;29;20228;-79
2023/11/18 04:24:36;;;;;;;11.40;7.37;;;1.00;99.90;;;;;;4954845;29;20253;-79
2023/11/18 04:27:03;;;;;;;10.80;6.53;;;1.00;99.90;;;;;;4954846;29;20727;-79
2023/11/18 04:29:30;;;;;;;10.13;6.50;;;1.10;99.90;;;;;;4953661;29;20336;-79
2023/11/18 04:31:57;;;;;;;9.73;6.80;;;1.00;99.90;;;;;;4954590;29;20198;-79
2023/11/18 04:34:24;;;;;;;9.20;6.30;;;1.00;99.90;;;;;;4953176;29;20572;-79
2023/11/18 04:36:52;;;;;;;10.20;6.40;;;1.00;99.90;;;;;;4954851;29;20245;-79
2023/11/18 04:39:20;;;;;;;9.83;6.73;;;1.00;99.90;;;;;;4955066;29;20282;-79
2023/11/18 04:41:47;;;;;;;11.77;6.47;;;1.00;99.90;;;;;;4954416;29;20273;-79
2023/11/18 04:44:16;;;;;;;11.13;6.93;;;1.00;99.90;;;;;;4953601;29;20222;-79
2023/11/18 04:46:44;;;;;;;11.10;6.10;;;1.00;99.90;;;;;;4952869;29;20197;-79
2023/11/18 04:49:12;;;;;;;10.50;6.60;;;1.00;99.90;;;;;;4954454;29;20297;-79
2023/11/18 04:51:39;;;;;;;11.47;6.90;;;1.00;99.90;;;;;;4954834;29;20199;-79
2023/11/18 04:54:07;;;;;;;10.70;6.67;;;1.00;99.90;;;;;;4954655;28;20202;-79
2023/11/18 04:56:35;;;;;;;10.00;6.40;;;1.00;99.90;;;;;;4957807;29;20300;-80
2023/11/18 04:59:04;;;;;;;10.67;6.40;;;1.00;99.90;;;;;;4958134;29;20201;-79
2023/11/18 05:01:32;;;;;;;10.07;6.50;;;1.00;99.90;;;;;;4958231;29;20225;-80
2023/11/18 05:04:00;;;;;;;10.00;6.30;;;0.90;99.90;;;;;;4958138;29;20674;-80
2023/11/18 05:06:27;;;;;;;10.37;6.40;;;0.90;99.90;;;;;;4958510;29;20287;-79
2023/11/18 05:08:54;;;;;;;10.53;6.67;;;1.00;99.90;;;;;;4958306;29;20198;-79
2023/11/18 05:11:21;;;;;;;10.47;6.57;;;0.90;99.90;;;;;;4957183;29;20220;-80
2023/11/18 05:13:49;;;;;;;11.73;6.40;;;0.90;99.90;;;;;;4956715;29;20695;-80
2023/11/18 05:16:16;;;;;;;10.70;6.57;;;0.90;99.90;;;;;;4958267;29;20198;-82
2023/11/18 05:18:43;;;;;;;9.53;6.50;;;0.80;99.90;;;;;;4958628;29;20198;-80
2023/11/18 05:21:11;;;;;;;9.03;5.90;;;0.90;99.90;;;;;;4956912;29;20689;-79
2023/11/18 05:23:38;;;;;;;10.07;6.30;;;0.80;99.90;;;;;;4940913;29;20576;-79
2023/11/18 05:26:05;;;;;;;10.97;5.87;;;0.80;99.90;;;;;;4957934;29;20217;-80
2023/11/18 05:28:33;;;;;;;10.87;6.43;;;0.80;99.90;;;;;;4958060;29;20198;-79
2023/11/18 05:31:04;;;;;;;11.73;6.70;;;0.80;99.90;;;;;;4940964;29;20193;-80
2023/11/18 05:33:34;;;;;;;10.30;6.63;;;0.90;99.90;;;;;;4958079;29;20316;-80
2023/11/18 05:36:04;;;;;;;9.27;6.20;;;0.80;99.90;;;;;;4941216;29;20198;-80
2023/11/18 05:38:34;;;;;;;9.53;6.57;;;0.80;99.90;;;;;;4957964;29;20198;-79
2023/11/18 05:41:03;;;;;;;9.17;6.17;;;0.70;99.90;;;;;;4957880;29;20244;-79
2023/11/18 05:43:40;;;;;;;9.93;6.60;;;0.70;99.90;;;;;;4958032;29;20249;-80
2023/11/18 05:46:16;;;;;;;8.50;5.80;;;0.80;99.90;;;;;;4958084;29;20216;-79
2023/11/18 05:48:48;;;;;;;10.33;6.40;;;0.80;99.90;;;;;;4957966;29;20248;-80
2023/11/18 05:51:29;;;;;;;9.83;6.10;;;0.70;99.90;;;;;;4956865;29;20229;-80
2023/11/18 05:53:56;;;;;;;9.50;6.03;;;0.80;99.90;;;;;;4958171;29;20201;-79
2023/11/18 05:56:24;;;;;;;10.20;6.53;;;0.70;99.90;;;;;;4957886;29;20310;-79
2023/11/18 05:58:53;;;;;;;10.80;6.33;;;0.70;99.90;;;;;;4957533;29;20281;-80
2023/11/18 06:01:22;;;;;;;9.10;6.03;;;0.80;99.90;;;;;;4957278;29;20657;-79
2023/11/18 06:03:49;;;;;;;11.47;6.40;;;0.80;99.90;;;;;;4955863;29;20205;-80
2023/11/18 06:06:17;;;;;;;8.90;6.03;;;0.70;99.90;;;;;;4955764;28;20291;-80
2023/11/18 06:08:50;;;;;;;9.30;6.00;;;0.80;99.90;;;;;;4956585;29;20227;-80
2023/11/18 06:11:18;;;;;;;9.67;6.00;;;0.80;99.90;;;;;;4956136;29;20222;-80
2023/11/18 06:13:49;;;;;;;10.80;6.23;;;0.70;99.90;;;;;;4940182;29;20612;-80
2023/11/18 06:16:20;;;;;;;10.13;6.07;;;0.80;99.90;;;;;;4955625;29;20261;-80
2023/11/18 06:18:49;;;;;;;12.10;6.20;;;0.80;99.90;;;;;;4939787;29;20241;-80
2023/11/18 06:21:18;;;;;;;8.43;5.80;;;0.80;99.90;;;;;;4940274;29;20577;-79
2023/11/18 06:23:48;;;;;;;10.07;5.93;;;0.80;99.90;;;;;;4940092;29;20194;-79
2023/11/18 06:26:16;;;;;;;9.47;6.07;;;0.80;99.90;;;;;;4957362;29;20640;-79
2023/11/18 06:28:45;;;;;;;8.90;5.83;;;0.80;99.90;;;;;;4955918;29;20201;-80
2023/11/18 06:31:13;;;;;;;9.50;5.93;;;0.70;99.90;;;;;;4956834;29;20213;-79
2023/11/18 06:33:45;;;;;;;9.43;5.93;;;0.70;99.90;;;;;;4957004;29;20203;-79
2023/11/18 06:36:18;;;;;;;9.63;6.03;;;0.70;99.90;;;;;;4955383;29;20209;-80
2023/11/18 06:38:50;;;;;;;10.90;5.70;;;0.80;99.90;;;;;;4957046;29;20202;-80
2023/11/18 06:41:22;;;;;;;9.87;6.07;;;0.70;99.90;;;;;;4955218;29;20231;-80
2023/11/18 06:43:56;;;;;;;9.37;6.00;;;0.70;99.90;;;;;;4939565;29;20290;-81
2023/11/18 06:46:32;;;;;;;10.93;6.47;;;0.70;99.90;;;;;;4956553;29;20202;-80
2023/11/18 06:49:03;;;;;;;8.90;5.63;;;0.70;99.90;;;;;;4954866;29;20721;-81
2023/11/18 06:51:35;;;;;;;11.33;5.80;;;0.70;99.90;;;;;;4956565;29;20193;-87
2023/11/18 06:54:13;;;;;;;8.47;5.40;;;0.60;99.90;;;;;;4955079;29;20253;-83
2023/11/18 06:56:44;;;;;;;12.03;5.80;;;0.70;99.90;;;;;;4939204;29;20678;-82
2023/11/18 06:59:13;;;;;;;11.20;6.20;;;0.80;99.90;;;;;;4938842;29;20208;-82
2023/11/18 07:01:43;;;;;;;10.90;6.50;;;0.80;99.90;;;;;;4954807;29;20722;-83
2023/11/18 07:04:14;;;;;;;14.10;6.43;;;0.80;99.90;;;;;;4938483;29;20334;-84
2023/11/18 07:06:42;;;;;;;10.77;6.70;;;0.80;99.90;;;;;;4955872;29;20711;-83
2023/11/18 07:09:16;;;;;;;10.73;6.73;;;0.80;99.90;;;;;;4954730;29;20198;-82
2023/11/18 07:11:46;;;;;;;13.43;7.60;;;0.80;99.90;;;;;;4955681;29;20220;-82
2023/11/18 07:14:15;;;;;;;11.27;7.33;;;0.80;99.90;;;;;;4956097;29;20193;-83
2023/11/18 07:16:43;;;;;;;11.43;7.23;;;0.90;99.90;;;;;;4955785;29;20308;-84
2023/11/18 07:19:17;;;;;;;10.50;6.90;;;0.90;99.90;;;;;;4954836;28;20288;-83
2023/11/18 07:21:44;;;;;;;12.13;7.20;;;0.90;99.90;;;;;;4954586;29;20218;-83
2023/11/18 07:24:12;;;;;;;13.73;7.73;;;0.90;99.90;;;;;;4955549;29;20652;-82
2023/11/18 07:26:39;;;;;;;11.83;6.77;;;0.90;99.90;;;;;;4938652;29;20265;-83
2023/11/18 07:29:09;;;;;;;11.20;6.87;;;1.00;99.90;;;;;;4955538;29;20193;-82
2023/11/18 07:31:36;;;;;;;10.70;6.60;;;0.90;99.90;;;;;;4954261;29;20667;-83
2023/11/18 07:34:05;;;;;;;13.07;7.53;;;1.00;99.90;;;;;;4954686;29;20642;-82
2023/11/18 07:36:33;;;;;;;14.27;7.50;;;0.90;99.90;;;;;;4955552;29;20211;-81
2023/11/18 07:39:03;;;;;;;15.03;8.13;;;0.90;99.90;;;;;;4953819;29;20205;-82
2023/11/18 07:41:34;;;;;;;11.93;7.60;;;0.90;99.90;;;;;;4955102;29;20263;-82
2023/11/18 07:44:01;;;;;;;13.60;8.10;;;0.90;99.90;;;;;;4953812;28;20608;-82
2023/11/18 07:46:30;;;;;;;14.10;7.87;;;0.90;99.90;;;;;;4937815;29;20303;-81
2023/11/18 07:48:58;;;;;;;12.57;7.63;;;0.80;99.90;;;;;;4922552;29;20200;-83
2023/11/18 07:51:25;;;;;;;13.93;8.10;;;0.80;99.90;;;;;;4955771;29;20196;-83
2023/11/18 07:53:52;;;;;;;13.90;8.43;;;0.80;99.90;;;;;;4954080;29;20258;-83
2023/11/18 07:56:22;;;;;;;14.53;8.53;;;0.80;99.90;;;;;;4953835;29;20222;-81
2023/11/18 07:58:51;;;;;;;13.27;7.70;;;0.90;99.90;;;;;;4953758;29;20294;-83
2023/11/18 08:01:21;;;;;;;14.53;8.20;;;1.00;99.90;;;;;;4953748;29;20213;-82
2023/11/18 08:03:50;;;;;;;14.53;8.27;;;1.10;99.90;;;;;;4953785;29;20730;-83
2023/11/18 08:06:18;;;;;;;13.30;8.23;;;1.10;99.90;;;;;;4955318;29;20622;-82
2023/11/18 08:08:47;;;;;;;14.37;8.00;;;1.10;99.90;;;;;;4938098;29;20638;-82
2023/11/18 08:11:17;;;;;;;14.37;8.80;;;1.10;99.90;;;;;;4955402;29;20280;-83
2023/11/18 08:13:44;;;;;;;14.80;8.53;;;1.00;99.90;;;;;;4953749;29;20197;-82
2023/11/18 08:16:12;;;;;;;15.50;8.10;;;1.00;99.90;;;;;;4954184;29;20209;-82
2023/11/18 08:18:39;;;;;;;13.33;8.17;;;1.00;99.90;;;;;;4954822;29;20218;-82
2023/11/18 08:21:07;;;;;;;15.07;8.80;;;1.10;99.90;;;;;;4954681;29;20610;-83
2023/11/18 08:23:34;;;;;;;13.67;8.33;;;1.10;99.90;;;;;;4954581;29;20191;-80
2023/11/18 08:26:01;;;;;;;15.03;8.60;;;1.00;99.90;;;;;;4954376;29;20221;-81
2023/11/18 08:28:28;;;;;;;16.70;8.80;;;0.90;99.90;;;;;;4921865;29;20670;-81
2023/11/18 08:30:55;;;;;;;14.37;8.30;;;1.00;99.90;;;;;;4954625;28;20552;-81
2023/11/18 08:33:25;;;;;;;14.97;8.60;;;0.90;99.90;;;;;;4952976;28;20251;-81
2023/11/18 08:35:52;;;;;;;14.20;8.20;;;1.00;99.90;;;;;;4954565;29;20257;-81
2023/11/18 08:38:19;;;;;;;16.53;8.57;;;1.00;99.90;;;;;;4954519;29;20231;-81
2023/11/18 08:40:48;;;;;;;15.37;8.87;;;1.00;99.90;;;;;;4954375;29;20244;-81
2023/11/18 08:43:16;;;;;;;16.47;8.97;;;1.00;99.90;;;;;;4954085;29;20231;-81
2023/11/18 08:45:44;;;;;;;13.33;8.37;;;1.10;99.90;;;;;;4937387;29;20205;-82
2023/11/18 08:48:12;;;;;;;14.00;8.77;;;1.10;99.90;;;;;;4954850;29;20231;-81
2023/11/18 08:50:43;;;;;;;13.77;8.57;;;1.00;99.90;;;;;;4937486;29;20201;-82
2023/11/18 08:53:11;;;;;;;14.63;8.23;;;1.00;99.90;;;;;;4936740;29;20690;-80
2023/11/18 08:55:39;;;;;;;16.27;9.07;;;1.10;99.90;;;;;;4937144;29;20220;-83
2023/11/18 08:58:18;;;;;;;16.27;8.67;;;1.10;99.90;;;;;;4953104;29;20209;-87
2023/11/18 09:00:52;;;;;;;14.90;8.07;;;1.00;99.90;;;;;;4937194;29;20247;-86
2023/11/18 09:03:24;;;;;;;16.10;8.70;;;1.00;99.90;;;;;;4956565;29;20240;-88
2023/11/18 09:05:58;;;;;;;16.67;8.63;;;0.90;99.90;;;;;;4953029;29;20240;-86
2023/11/18 09:08:34;;;;;;;17.23;9.13;;;0.90;99.90;;;;;;4953171;29;20276;-87
2023/11/18 09:11:05;;;;;;;16.43;9.07;;;1.00;99.90;;;;;;4952761;29;20706;-86
2023/11/18 09:13:34;;;;;;;17.37;9.70;;;1.00;99.90;;;;;;4952800;29;20214;-86
2023/11/18 09:16:09;;;;;;;16.07;9.17;;;1.10;99.90;;;;;;4954252;29;20269;-86
2023/11/18 09:18:43;;;;;;;15.27;8.93;;;0.90;99.90;;;;;;4954581;29;20245;-85
2023/11/18 09:21:24;;;;;;;15.50;9.03;;;0.90;99.90;;;;;;4953315;29;20201;-88
2023/11/18 09:23:52;;;;;;;15.40;8.73;;;1.00;99.90;;;;;;4953646;29;20221;-90
2023/11/18 09:26:21;;;;;;;16.03;9.20;;;1.10;99.90;;;;;;4940725;29;20695;-87
2023/11/18 09:28:50;;;;;;;16.33;9.43;;;1.00;99.90;;;;;;4953249;29;20229;-89
2023/11/18 09:31:17;;;;;;;16.83;9.13;;;1.00;99.90;;;;;;4937505;29;20204;-90
2023/11/18 09:33:51;;;;;;;15.27;9.07;;;1.00;99.90;;;;;;4953427;29;20208;-87
2023/11/18 09:36:22;;;;;;;16.07;8.90;;;1.00;99.90;;;;;;4953217;29;20205;-88
2023/11/18 09:38:50;;;;;;;16.30;9.50;;;1.00;99.90;;;;;;4937395;29;20186;-87
2023/11/18 09:41:18;;;;;;;16.47;9.17;;;1.00;99.90;;;;;;4921939;29;20748;-87
2023/11/18 09:43:46;;;;;;;16.87;9.43;;;1.00;99.90;;;;;;4960509;29;20203;-88
2023/11/18 09:46:26;;;;;;;16.93;9.73;;;1.10;99.90;;;;;;4958322;29;20729;-88
2023/11/18 09:49:39;;;;;;;16.73;9.47;;;1.10;99.90;;;;;;4958076;29;20561;-84
2023/11/18 09:52:07;;;;;;;17.00;9.47;;;1.20;99.90;;;;;;4903154;29;20224;-88
2023/11/18 09:54:44;;;;;;;20.30;9.83;;;1.20;99.90;;;;;;4902883;29;20279;-87
2023/11/18 09:57:17;;;;;;;16.73;9.33;;;1.00;99.90;;;;;;4902729;29;20219;-88
2023/11/18 10:02:50;;;;;;;16.50;9.43;;;1.00;99.90;;;;;;4901714;29;20258;-88
2023/11/18 10:05:26;;;;;;;19.00;9.80;;;1.00;99.90;;;;;;4921533;29;20244;-87
2023/11/18 10:07:54;;;;;;;17.90;9.70;;;1.10;99.90;;;;;;4918318;29;20215;-86
2023/11/18 10:10:21;;;;;;;17.80;9.83;;;1.10;99.90;;;;;;4917389;29;20227;-86
2023/11/18 10:12:53;;;;;;;17.00;9.80;;;1.10;99.90;;;;;;4917218;29;20207;-87
2023/11/18 10:15:25;;;;;;;16.37;9.43;;;1.00;99.90;;;;;;4901399;29;20279;-86
2023/11/18 10:20:53;;;;;;;19.83;9.70;;;1.00;99.90;;;;;;4920848;29;20214;-88
2023/11/18 10:23:22;;;;;;;18.17;9.90;;;1.10;99.90;;;;;;4918091;29;20226;-86
2023/11/18 10:25:52;;;;;;;18.43;10.27;;;1.10;99.90;;;;;;4916861;29;20416;-85
2023/11/18 10:28:27;;;;;;;18.33;10.33;;;1.20;99.90;;;;;;4901149;29;20254;-84
2023/11/18 10:31:20;;;;;;;17.00;9.57;;;1.10;99.90;;;;;;4900762;29;20244;-85
2023/11/18 10:33:49;;;;;;;18.97;10.63;;;1.20;99.90;;;;;;4916386;29;20218;-87
2023/11/18 10:36:25;;;;;;;17.97;10.50;;;1.30;99.90;;;;;;4916904;29;20199;-88
2023/11/18 10:38:55;;;;;;;18.00;9.30;;;1.40;99.90;;;;;;4916647;29;20562;-85
2023/11/18 10:41:23;;;;;;;18.97;10.00;;;1.30;99.90;;;;;;4916349;29;20579;-87
2023/11/18 10:44:13;;;;;;;17.57;10.60;;;1.30;99.90;;;;;;4916120;29;20398;-85
2023/11/18 10:46:58;;;;;;;18.07;10.17;;;1.20;99.90;;;;;;4900666;29;20275;-87
2023/11/18 10:49:36;;;;;;;20.07;9.93;;;1.30;99.90;;;;;;4900343;29;20285;-86
2023/11/18 10:52:08;;;;;;;20.53;10.60;;;1.40;99.90;;;;;;4901242;29;20291;-84
2023/11/18 10:54:37;;;;;;;19.20;10.30;;;1.30;99.90;;;;;;4915702;29;20214;-85
2023/11/18 10:57:07;;;;;;;18.70;10.27;;;1.50;99.90;;;;;;4934272;29;20230;-86
2023/11/18 10:59:36;;;;;;;18.00;10.20;;;1.60;99.90;;;;;;4957968;29;20215;-85
2023/11/18 11:02:19;;;;;;;18.03;10.10;;;1.50;99.90;;;;;;4955738;29;20229;-87
2023/11/18 11:04:48;;;;;;;17.50;9.87;;;1.40;99.90;;;;;;4940836;29;20229;-87
2023/11/18 11:07:19;;;;;;;17.33;10.17;;;1.30;99.90;;;;;;4939996;29;20225;-86
2023/11/18 11:09:46;;;;;;;17.30;10.40;;;1.40;99.90;;;;;;4956791;29;20224;-85
2023/11/18 11:12:16;;;;;;;17.87;9.83;;;1.40;99.90;;;;;;4956139;29;20220;-87
2023/11/18 11:15:04;;;;;;;20.23;10.13;;;1.50;99.90;;;;;;4956940;29;20647;-86
2023/11/18 11:17:36;;;;;;;17.90;9.77;;;1.50;99.90;;;;;;4939599;29;20206;-86
2023/11/18 11:20:23;;;;;;;19.27;10.37;;;1.50;99.90;;;;;;4955193;29;20300;-85
2023/11/18 11:23:21;;;;;;;17.33;9.63;;;1.50;99.90;;;;;;4955336;29;20321;-85
2023/11/18 11:25:58;;;;;;;16.53;9.77;;;1.50;99.90;;;;;;4956814;29;20212;-83
2023/11/18 11:28:46;;;;;;;18.10;10.60;;;1.50;99.90;;;;;;4956128;29;20249;-85
2023/11/18 11:31:41;;;;;;;17.33;10.60;;;1.60;99.90;;;;;;4959650;29;20209;-86
2023/11/18 11:34:24;;;;;;;16.93;10.23;;;1.40;99.90;;;;;;4955512;29;20694;-85
2023/11/18 11:36:54;;;;;;;20.40;10.53;;;1.30;99.90;;;;;;4955723;29;20208;-85
2023/11/18 11:39:25;;;;;;;18.00;10.77;;;1.30;99.90;;;;;;4954908;29;20194;-86
2023/11/18 11:41:56;;;;;;;19.23;11.70;;;1.30;99.90;;;;;;4956695;29;20224;-82
2023/11/18 11:44:31;;;;;;;19.97;10.53;;;1.30;99.90;;;;;;4955726;29;20282;-83
2023/11/18 11:47:00;;;;;;;18.50;10.00;;;1.30;99.90;;;;;;4954278;29;20197;-83
2023/11/18 11:49:39;;;;;;;20.63;11.30;;;1.40;99.90;;;;;;4955282;29;20195;-82
2023/11/18 11:52:27;;;;;;;19.13;11.00;;;1.40;99.90;;;;;;4954824;29;20298;-82
2023/11/18 11:55:12;;;;;;;18.80;10.73;;;1.50;99.90;;;;;;4955859;29;20195;-84
2023/11/18 11:57:42;;;;;;;21.17;11.33;;;1.50;99.90;;;;;;4954195;29;20238;-86
2023/11/18 12:00:17;;;;;;;18.60;10.20;;;1.50;99.90;;;;;;4923407;29;20198;-82
2023/11/18 12:02:54;;;;;;;19.77;11.00;;;1.50;99.90;;;;;;4938438;29;20239;-84
2023/11/18 12:05:26;;;;;;;19.40;11.57;;;1.50;99.90;;;;;;4953352;28;20237;-84
2023/11/18 12:07:55;;;;;;;19.50;10.50;;;1.50;99.90;;;;;;4954934;29;20203;-84
2023/11/18 12:10:28;;;;;;;20.93;11.10;;;1.40;99.90;;;;;;4937681;29;20233;-83
2023/11/18 12:13:17;;;;;;;18.77;10.40;;;1.50;99.90;;;;;;4953332;29;20197;-84
2023/11/18 12:15:48;;;;;;;18.47;10.97;;;1.40;99.90;;;;;;4937843;29;20205;-84
2023/11/18 12:18:17;;;;;;;18.83;10.47;;;1.40;99.90;;;;;;4955194;29;20572;-85
2023/11/18 12:20:47;;;;;;;23.07;11.83;;;1.40;99.90;;;;;;4938129;29;20194;-83
2023/11/18 12:23:15;;;;;;;20.93;12.17;;;1.50;99.90;;;;;;4954774;29;20230;-84
2023/11/18 12:25:49;;;;;;;20.90;11.40;;;1.50;99.90;;;;;;4954657;29;20694;-85
2023/11/18 12:28:21;;;;;;;21.90;11.50;;;1.60;99.90;;;;;;4954495;29;20207;-82
2023/11/18 12:30:57;;;;;;;20.87;11.30;;;1.60;99.90;;;;;;4953328;29;20281;-83
2023/11/18 12:33:45;;;;;;;21.37;11.40;;;1.60;99.90;;;;;;4937592;29;20198;-83
2023/11/18 12:36:15;;;;;;;23.13;11.90;;;1.60;99.90;;;;;;4954440;29;20212;-84
2023/11/18 12:39:25;;;;;;;21.23;12.20;;;1.50;99.90;;;;;;4937783;29;20197;-85
2023/11/18 12:42:06;;;;;;;19.70;11.57;;;1.50;99.90;;;;;;4932346;29;20231;-86
2023/11/18 12:44:44;;;;;;;21.37;12.27;;;1.60;99.90;;;;;;4956345;29;20285;-83
2023/11/18 12:47:18;;;;;;;22.53;12.13;;;1.50;99.90;;;;;;4954428;29;20722;-85
2023/11/18 12:49:49;;;;;;;20.33;11.50;;;1.50;99.90;;;;;;4954550;29;20346;-84
2023/11/18 12:52:18;;;;;;;21.30;11.70;;;1.60;99.90;;;;;;4955939;29;20202;-86
2023/11/18 12:54:50;;;;;;;22.00;12.47;;;1.50;99.90;;;;;;4954951;29;20206;-89
2023/11/18 12:57:22;;;;;;;21.07;11.30;;;1.50;99.90;;;;;;4953685;29;20216;-84
2023/11/18 12:59:50;;;;;;;21.43;12.67;;;1.70;99.90;;;;;;4937961;29;20202;-91
2023/11/18 13:02:20;;;;;;;22.73;12.53;;;1.70;99.90;;;;;;4965207;29;20182;-84
2023/11/18 13:04:49;;;;;;;24.63;12.87;;;1.70;99.90;;;;;;4964253;29;20304;-82
2023/11/18 13:07:18;;;;;;;20.03;12.00;;;1.70;99.90;;;;;;4941887;29;20229;-82